Time;durP1;ratioP1;P1;durP2;ratioP2;P2;SDS_P1;SDS_P2;PMS_P1;PMS_P2;Temp;Humidity;BMP_temperature;BMP_pressure;BME280_temperature;BME280_humidity;BME280_pressure;Samples;Min_cycle;Max_cycle;Signal;HPM_P1;HPM_P2
2023/04/17 00:01:59;;;;;;;;;;;;;;;8.70;84.79;100867.20;102566;276;106452;-59
2023/04/17 00:04:32;;;;;;;;;;;;;;;8.68;84.68;100869.02;102682;277;114691;-60
2023/04/17 00:07:06;;;;;;;;;;;;;;;8.63;84.73;100867.70;102525;266;94695;-57
2023/04/17 00:09:41;;;;;;;;;;;;;;;8.62;84.72;100861.81;102585;278;96991;-57
2023/04/17 00:12:19;;;;;;;;;;;;;;;8.60;84.57;100866.91;102525;266;120984;-57
2023/04/17 00:14:59;;;;;;;;;;;;;;;8.56;84.67;100866.95;102551;277;105479;-58
2023/04/17 00:17:35;;;;;;;;;;;;;;;8.54;84.61;100866.86;102549;277;114937;-57
2023/04/17 00:20:10;;;;;;;;;;;;;;;8.54;84.63;100866.84;102513;278;95766;-58
2023/04/17 00:22:49;;;;;;;;;;;;;;;8.55;84.62;100865.63;102565;277;97950;-56
2023/04/17 00:25:24;;;;;;;;;;;;;;;8.54;84.90;100867.00;102515;277;120656;-57
2023/04/17 00:28:02;;;;;;;;;;;;;;;8.57;84.87;100868.63;102571;266;105654;-57
2023/04/17 00:30:41;;;;;;;;;;;;;;;8.55;84.88;100867.32;102565;277;114871;-61
2023/04/17 00:33:22;;;;;;;;;;;;;;;8.55;84.99;100872.48;102541;277;96234;-57
2023/04/17 00:35:59;;;;;;;;;;;;;;;8.54;85.08;100868.07;102571;277;97224;-59
2023/04/17 00:38:33;;;;;;;;;;;;;;;8.57;85.10;100871.86;102583;266;119428;-59
2023/04/17 00:41:08;;;;;;;;;;;;;;;8.63;85.03;100870.16;102586;277;105743;-60
2023/04/17 00:43:42;;;;;;;;;;;;;;;8.63;85.01;100865.28;102605;277;114935;-61
2023/04/17 00:46:17;;;;;;;;;;;;;;;8.58;85.10;100874.69;102586;278;93535;-57
2023/04/17 00:48:50;;;;;;;;;;;;;;;8.53;85.14;100875.76;102580;278;96233;-57
2023/04/17 00:51:23;;;;;;;;;;;;;;;8.51;85.12;100879.75;102580;277;120846;-58
2023/04/17 00:53:58;;;;;;;;;;;;;;;8.49;84.99;100883.52;102594;274;106023;-58
2023/04/17 00:56:32;;;;;;;;;;;;;;;8.46;84.85;100883.91;102574;278;114406;-59
2023/04/17 00:59:11;;;;;;;;;;;;;;;8.42;84.93;100889.66;102530;277;92584;-59
2023/04/17 01:01:53;;;;;;;;;;;;;;;8.38;85.07;100894.27;102564;277;96724;-60
2023/04/17 01:04:29;;;;;;;;;;;;;;;8.36;84.98;100894.41;102499;277;120140;-60
2023/04/17 01:07:06;;;;;;;;;;;;;;;8.32;85.25;100892.88;102583;277;105623;-58
2023/04/17 01:09:46;;;;;;;;;;;;;;;8.32;85.30;100896.12;102526;277;113301;-57
2023/04/17 01:12:21;;;;;;;;;;;;;;;8.35;85.27;100897.68;102546;278;96584;-60
2023/04/17 01:15:01;;;;;;;;;;;;;;;8.38;85.32;100893.30;102571;277;96021;-60
2023/04/17 01:17:41;;;;;;;;;;;;;;;8.43;85.47;100892.05;102569;277;120409;-58
2023/04/17 01:20:17;;;;;;;;;;;;;;;8.45;85.63;100899.06;102538;277;105708;-57
2023/04/17 01:22:52;;;;;;;;;;;;;;;8.46;85.60;100899.10;102550;277;113891;-57
2023/04/17 01:25:31;;;;;;;;;;;;;;;8.46;85.63;100898.55;102620;278;96800;-58
2023/04/17 01:28:07;;;;;;;;;;;;;;;8.49;85.80;100893.89;102046;278;712411;-59
2023/04/17 01:30:40;;;;;;;;;;;;;;;8.53;85.69;100887.37;102614;278;121499;-58
2023/04/17 01:33:16;;;;;;;;;;;;;;;8.54;85.68;100881.71;102635;278;106465;-57
2023/04/17 01:35:54;;;;;;;;;;;;;;;8.50;85.81;100889.61;102632;278;113723;-57
2023/04/17 01:38:35;;;;;;;;;;;;;;;8.42;85.71;100885.75;102608;278;94889;-57
2023/04/17 01:41:17;;;;;;;;;;;;;;;8.37;85.83;100890.95;102683;278;97266;-58
2023/04/17 01:43:57;;;;;;;;;;;;;;;8.32;85.99;100894.37;102618;278;120564;-59
2023/04/17 01:46:33;;;;;;;;;;;;;;;8.27;85.90;100893.63;102611;278;105381;-57
2023/04/17 01:49:11;;;;;;;;;;;;;;;8.25;85.96;100899.60;102632;278;114166;-58
2023/04/17 01:51:44;;;;;;;;;;;;;;;8.25;86.06;100901.85;102605;278;96070;-59
2023/04/17 01:54:21;;;;;;;;;;;;;;;8.25;86.09;100898.08;102646;278;97900;-59
2023/04/17 01:56:56;;;;;;;;;;;;;;;8.30;86.06;100900.29;102654;278;120778;-57
2023/04/17 01:59:31;;;;;;;;;;;;;;;8.32;86.15;100909.36;102626;278;104523;-56
2023/04/17 02:02:05;;;;;;;;;;;;;;;8.35;86.28;100905.91;102633;278;113020;-55
2023/04/17 02:04:42;;;;;;;;;;;;;;;8.37;86.20;100903.04;102601;278;94382;-56
2023/04/17 02:07:20;;;;;;;;;;;;;;;8.39;86.26;100903.61;102644;278;97415;-57
2023/04/17 02:09:58;;;;;;;;;;;;;;;8.44;86.27;100902.35;102658;278;121768;-57
2023/04/17 02:12:40;;;;;;;;;;;;;;;8.47;86.26;100905.99;102615;270;105747;-59
2023/04/17 02:15:15;;;;;;;;;;;;;;;8.45;86.20;100906.56;102620;278;114961;-57
2023/04/17 02:17:53;;;;;;;;;;;;;;;8.42;86.37;100907.06;102658;278;94948;-56
2023/04/17 02:20:27;;;;;;;;;;;;;;;8.41;86.17;100906.98;102695;278;97843;-57
2023/04/17 02:23:01;;;;;;;;;;;;;;;8.41;86.18;100908.27;102645;278;119843;-59
2023/04/17 02:25:39;;;;;;;;;;;;;;;8.36;86.23;100909.73;102668;278;105549;-56
2023/04/17 02:28:18;;;;;;;;;;;;;;;8.29;86.20;100905.24;102609;278;115081;-55
2023/04/17 02:30:56;;;;;;;;;;;;;;;8.25;86.27;100912.42;102627;278;96662;-56
2023/04/17 02:33:35;;;;;;;;;;;;;;;8.26;86.19;100907.65;102607;278;97535;-56
2023/04/17 02:36:09;;;;;;;;;;;;;;;8.26;86.36;100908.78;102585;278;121459;-56
2023/04/17 02:38:43;;;;;;;;;;;;;;;8.30;86.35;100908.42;102582;277;104897;-56
2023/04/17 02:41:17;;;;;;;;;;;;;;;8.34;86.31;100910.49;102588;278;114848;-60
2023/04/17 02:43:55;;;;;;;;;;;;;;;8.34;86.26;100910.35;102530;278;94412;-59
2023/04/17 02:46:31;;;;;;;;;;;;;;;8.34;86.48;100912.31;102622;277;96318;-58
2023/04/17 02:49:06;;;;;;;;;;;;;;;8.32;86.38;100910.48;102587;278;119886;-60
2023/04/17 02:51:41;;;;;;;;;;;;;;;8.30;86.30;100914.46;102590;278;104758;-54
2023/04/17 02:54:16;;;;;;;;;;;;;;;8.29;86.48;100922.14;102531;277;114880;-56
2023/04/17 02:56:51;;;;;;;;;;;;;;;8.28;86.47;100921.90;102562;278;92091;-57
2023/04/17 02:59:26;;;;;;;;;;;;;;;8.26;86.51;100922.75;102566;278;97736;-57
2023/04/17 03:02:00;;;;;;;;;;;;;;;8.23;86.59;100924.65;102582;278;121567;-58
2023/04/17 03:04:34;;;;;;;;;;;;;;;8.20;86.68;100925.77;102567;277;105565;-59
2023/04/17 03:07:16;;;;;;;;;;;;;;;8.18;86.67;100928.32;102574;277;114961;-58
2023/04/17 03:09:52;;;;;;;;;;;;;;;8.14;86.65;100925.27;102498;278;97209;-58
2023/04/17 03:12:30;;;;;;;;;;;;;;;8.11;86.66;100932.63;102575;318;97738;-59
2023/04/17 03:15:03;;;;;;;;;;;;;;;8.10;86.87;100935.92;102390;279;120664;-59
2023/04/17 03:17:37;;;;;;;;;;;;;;;8.09;86.91;100934.48;102475;279;103830;-59
2023/04/17 03:20:10;;;;;;;;;;;;;;;8.10;87.02;100934.63;102388;279;113706;-56
2023/04/17 03:22:49;;;;;;;;;;;;;;;8.16;87.00;100936.89;102405;279;95175;-56
2023/04/17 03:25:25;;;;;;;;;;;;;;;8.19;87.06;100941.41;102426;279;98240;-56
2023/04/17 03:28:01;;;;;;;;;;;;;;;8.23;87.25;100943.02;102432;268;121503;-56
2023/04/17 03:30:37;;;;;;;;;;;;;;;8.29;87.27;100941.66;102452;279;105208;-55
2023/04/17 03:33:12;;;;;;;;;;;;;;;8.38;87.18;100946.98;102374;279;113874;-57
2023/04/17 03:35:48;;;;;;;;;;;;;;;8.43;87.20;100950.02;102466;279;93407;-57
2023/04/17 03:38:23;;;;;;;;;;;;;;;8.48;87.18;100948.98;102421;279;97830;-57
2023/04/17 03:41:02;;;;;;;;;;;;;;;8.52;87.25;100949.10;102427;279;121114;-56
2023/04/17 03:43:34;;;;;;;;;;;;;;;8.50;87.15;100948.05;102395;279;104777;-56
2023/04/17 03:46:14;;;;;;;;;;;;;;;8.46;87.28;100954.08;102449;279;113932;-58
2023/04/17 03:48:49;;;;;;;;;;;;;;;8.42;87.24;100953.39;102414;279;92896;-59
2023/04/17 03:51:23;;;;;;;;;;;;;;;8.39;87.35;100955.87;102431;279;97083;-56
2023/04/17 03:54:00;;;;;;;;;;;;;;;8.38;87.40;100954.75;102458;279;120845;-55
2023/04/17 03:56:39;;;;;;;;;;;;;;;8.37;87.37;100961.83;102445;279;105366;-57
2023/04/17 03:59:16;;;;;;;;;;;;;;;8.36;87.36;100962.48;102416;279;115132;-60
2023/04/17 04:01:54;;;;;;;;;;;;;;;8.36;87.40;100964.66;102486;279;94690;-58
2023/04/17 04:04:27;;;;;;;;;;;;;;;8.34;87.41;100965.89;102409;279;97681;-58
2023/04/17 04:07:02;;;;;;;;;;;;;;;8.36;87.45;100967.70;102404;279;120324;-56
2023/04/17 04:09:38;;;;;;;;;;;;;;;8.39;87.62;100970.58;102461;279;104489;-56
2023/04/17 04:12:16;;;;;;;;;;;;;;;8.43;87.62;100968.95;102434;279;113228;-57
2023/04/17 04:14:50;;;;;;;;;;;;;;;8.47;87.63;100971.33;102578;277;95822;-56
2023/04/17 04:17:25;;;;;;;;;;;;;;;8.52;87.83;100977.10;102639;277;96501;-55
2023/04/17 04:20:01;;;;;;;;;;;;;;;8.57;87.86;100978.39;102553;277;121509;-56
2023/04/17 04:22:35;;;;;;;;;;;;;;;8.65;87.91;100984.52;102560;266;103587;-55
2023/04/17 04:25:11;;;;;;;;;;;;;;;8.68;87.80;100984.95;102539;277;113135;-55
2023/04/17 04:27:48;;;;;;;;;;;;;;;8.73;87.82;100988.65;102609;277;96936;-55
2023/04/17 04:30:25;;;;;;;;;;;;;;;8.77;87.71;100987.02;102608;278;97425;-56
2023/04/17 04:32:59;;;;;;;;;;;;;;;8.83;87.76;100988.09;102570;277;120794;-56
2023/04/17 04:35:35;;;;;;;;;;;;;;;8.87;87.71;100987.27;102591;277;106046;-59
2023/04/17 04:38:12;;;;;;;;;;;;;;;8.91;87.75;100988.55;102556;277;113381;-59
2023/04/17 04:40:51;;;;;;;;;;;;;;;8.92;87.62;100995.39;102541;277;95254;-56
2023/04/17 04:43:29;;;;;;;;;;;;;;;8.95;87.61;101000.27;102505;277;97985;-55
2023/04/17 04:46:07;;;;;;;;;;;;;;;8.96;87.41;100997.52;102596;277;121158;-57
2023/04/17 04:48:44;;;;;;;;;;;;;;;8.96;87.42;100995.77;102588;277;104770;-56
2023/04/17 04:51:18;;;;;;;;;;;;;;;8.93;87.52;100999.84;102542;277;115398;-56
2023/04/17 04:53:58;;;;;;;;;;;;;;;8.89;87.45;101002.52;102581;277;94628;-56
2023/04/17 04:56:35;;;;;;;;;;;;;;;8.88;87.40;101006.19;102568;277;97595;-59
2023/04/17 04:59:09;;;;;;;;;;;;;;;8.86;87.37;101008.23;102513;277;121190;-59
2023/04/17 05:01:48;;;;;;;;;;;;;;;8.85;87.55;101007.23;102585;278;106091;-55
2023/04/17 05:04:32;;;;;;;;;;;;;;;8.87;87.54;101004.77;102527;277;112982;-55
2023/04/17 05:07:12;;;;;;;;;;;;;;;8.85;87.70;101006.58;102531;278;96479;-59
2023/04/17 05:09:49;;;;;;;;;;;;;;;8.93;87.53;101003.61;102499;277;96482;-59
2023/04/17 05:12:26;;;;;;;;;;;;;;;9.01;87.42;101007.34;102549;277;120778;-55
2023/04/17 05:15:02;;;;;;;;;;;;;;;9.05;87.62;101008.05;102533;277;105331;-56
2023/04/17 05:17:36;;;;;;;;;;;;;;;9.09;87.69;101005.81;102573;277;115510;-59
2023/04/17 05:20:12;;;;;;;;;;;;;;;9.16;87.41;101002.72;102524;277;96795;-58
2023/04/17 05:22:46;;;;;;;;;;;;;;;9.23;87.22;101004.12;102575;277;97767;-56
2023/04/17 05:25:21;;;;;;;;;;;;;;;9.29;87.21;101005.72;102559;278;120302;-57
2023/04/17 05:28:02;;;;;;;;;;;;;;;9.33;87.29;101001.13;102586;278;104668;-59
2023/04/17 05:30:36;;;;;;;;;;;;;;;9.35;87.22;101007.80;102628;278;115287;-58
2023/04/17 05:33:11;;;;;;;;;;;;;;;9.37;87.14;101012.58;102652;278;94382;-56
2023/04/17 05:35:48;;;;;;;;;;;;;;;9.37;86.90;101013.86;102664;278;96687;-59
2023/04/17 05:38:28;;;;;;;;;;;;;;;9.37;86.80;101013.45;102663;278;119882;-58
2023/04/17 05:41:06;;;;;;;;;;;;;;;9.31;86.81;101012.05;102669;278;105050;-59
2023/04/17 05:43:47;;;;;;;;;;;;;;;9.34;86.63;101015.80;102655;278;114108;-59
2023/04/17 05:46:24;;;;;;;;;;;;;;;9.28;86.69;101019.36;102599;278;97246;-56
2023/04/17 05:49:04;;;;;;;;;;;;;;;9.26;86.69;101019.19;102622;278;97807;-56
2023/04/17 05:51:36;;;;;;;;;;;;;;;9.29;86.78;101018.70;102621;278;121296;-55
2023/04/17 05:54:17;;;;;;;;;;;;;;;9.37;86.67;101021.54;102599;319;106163;-55
2023/04/17 05:56:52;;;;;;;;;;;;;;;9.38;86.72;101021.17;102646;278;114121;-60
2023/04/17 05:59:28;;;;;;;;;;;;;;;9.36;86.78;101016.27;102607;278;96832;-59
2023/04/17 06:02:06;;;;;;;;;;;;;;;9.50;86.80;101008.05;102633;278;96382;-56
2023/04/17 06:04:41;;;;;;;;;;;;;;;9.58;86.88;101011.94;102619;278;120345;-55
2023/04/17 06:07:19;;;;;;;;;;;;;;;9.70;86.87;101015.96;102630;278;106007;-58
2023/04/17 06:09:57;;;;;;;;;;;;;;;9.95;86.81;101010.45;102561;278;115339;-60
2023/04/17 06:12:40;;;;;;;;;;;;;;;10.17;86.52;101005.52;102554;278;94793;-59
2023/04/17 06:15:18;;;;;;;;;;;;;;;10.25;86.56;101000.60;102446;279;97046;-58
2023/04/17 06:17:52;;;;;;;;;;;;;;;10.29;86.43;101003.95;102380;279;118571;-59
2023/04/17 06:20:27;;;;;;;;;;;;;;;10.33;86.30;101015.50;102466;279;105527;-57
2023/04/17 06:23:04;;;;;;;;;;;;;;;10.38;85.99;101024.75;102423;279;113394;-56
2023/04/17 06:25:41;;;;;;;;;;;;;;;10.29;85.89;101025.61;102461;279;93483;-58
2023/04/17 06:28:19;;;;;;;;;;;;;;;10.33;85.68;101028.13;102394;279;97975;-60
2023/04/17 06:30:57;;;;;;;;;;;;;;;10.37;85.50;101025.92;102419;279;121187;-58
2023/04/17 06:33:31;;;;;;;;;;;;;;;10.43;85.28;101031.89;102375;279;104940;-58
2023/04/17 06:36:07;;;;;;;;;;;;;;;10.39;85.17;101031.84;102445;279;114502;-59
2023/04/17 06:38:42;;;;;;;;;;;;;;;10.44;85.09;101028.68;102394;279;97299;-59
2023/04/17 06:41:21;;;;;;;;;;;;;;;10.50;85.01;101030.55;102472;279;98299;-58
2023/04/17 06:44:00;;;;;;;;;;;;;;;10.53;84.97;101030.95;102355;279;121052;-58
2023/04/17 06:46:34;;;;;;;;;;;;;;;10.77;84.84;101031.61;102442;279;104115;-57
2023/04/17 06:49:14;;;;;;;;;;;;;;;11.02;84.74;101028.09;102435;279;112878;-56
2023/04/17 06:51:51;;;;;;;;;;;;;;;11.16;84.39;101029.65;102391;279;95790;-58
2023/04/17 06:54:24;;;;;;;;;;;;;;;11.12;83.90;101033.34;102395;279;97674;-60
2023/04/17 06:57:09;;;;;;;;;;;;;;;11.19;83.84;101038.95;102439;279;121777;-60
2023/04/17 06:59:47;;;;;;;;;;;;;;;11.21;83.43;101041.83;102403;279;105273;-60
2023/04/17 07:02:23;;;;;;;;;;;;;;;11.36;83.34;101041.57;102468;279;113722;-56
2023/04/17 07:05:01;;;;;;;;;;;;;;;11.38;83.31;101044.64;102479;279;93598;-55
2023/04/17 07:07:38;;;;;;;;;;;;;;;11.34;82.73;101049.19;102425;279;97454;-55
2023/04/17 07:10:14;;;;;;;;;;;;;;;11.25;82.79;101052.09;102390;279;120427;-56
2023/04/17 07:12:53;;;;;;;;;;;;;;;11.18;82.50;101053.44;102451;279;103689;-59
2023/04/17 07:15:30;;;;;;;;;;;;;;;11.18;82.42;101051.81;102613;277;113445;-57
2023/04/17 07:18:06;;;;;;;;;;;;;;;11.59;82.80;101049.70;102585;278;95291;-57
2023/04/17 07:20:44;;;;;;;;;;;;;;;11.84;82.75;101053.78;102627;278;97821;-58
2023/04/17 07:23:24;;;;;;;;;;;;;;;11.93;82.65;101057.23;102550;278;119643;-59
2023/04/17 07:26:03;;;;;;;;;;;;;;;12.17;82.54;101058.80;102616;277;106259;-59
2023/04/17 07:28:42;;;;;;;;;;;;;;;12.39;82.33;101061.90;102542;278;114430;-57
2023/04/17 07:31:23;;;;;;;;;;;;;;;12.46;81.41;101063.92;102625;277;95586;-60
2023/04/17 07:34:00;;;;;;;;;;;;;;;12.56;81.17;101063.91;102607;278;96142;-59
2023/04/17 07:36:36;;;;;;;;;;;;;;;12.65;80.93;101069.18;102601;278;121343;-59
2023/04/17 07:39:11;;;;;;;;;;;;;;;12.52;80.25;101071.80;102592;277;104044;-61
2023/04/17 07:41:47;;;;;;;;;;;;;;;12.42;80.07;101075.70;102647;278;114839;-56
2023/04/17 07:44:26;;;;;;;;;;;;;;;12.42;80.38;101072.03;102577;277;94794;-56
2023/04/17 07:47:01;;;;;;;;;;;;;;;12.66;80.35;101071.23;102662;278;96781;-58
2023/04/17 07:49:47;;;;;;;;;;;;;;;13.01;79.99;101072.33;102628;277;120199;-59
2023/04/17 07:52:26;;;;;;;;;;;;;;;13.29;80.03;101074.19;102607;278;104748;-59
2023/04/17 07:55:01;;;;;;;;;;;;;;;13.38;79.28;101079.98;102604;277;113967;-58
2023/04/17 07:57:41;;;;;;;;;;;;;;;13.25;78.96;101084.96;102607;277;94389;-59
2023/04/17 08:00:15;;;;;;;;;;;;;;;13.00;78.71;101079.86;102576;277;96399;-58
2023/04/17 08:02:57;;;;;;;;;;;;;;;13.17;78.79;101080.52;102608;277;119585;-59
2023/04/17 08:05:32;;;;;;;;;;;;;;;13.38;78.70;101083.79;102604;277;105563;-59
2023/04/17 08:08:07;;;;;;;;;;;;;;;13.71;78.64;101080.52;102577;277;114212;-59
2023/04/17 08:10:41;;;;;;;;;;;;;;;14.14;78.16;101074.36;102581;277;94891;-59
2023/04/17 08:13:19;;;;;;;;;;;;;;;14.16;76.70;101078.73;102562;277;97878;-58
2023/04/17 08:15:56;;;;;;;;;;;;;;;13.96;76.34;101080.23;102560;277;120747;-57
2023/04/17 08:18:32;;;;;;;;;;;;;;;13.89;76.53;101079.48;102586;277;104936;-56
2023/04/17 08:21:06;;;;;;;;;;;;;;;13.93;76.61;101083.70;102576;277;113656;-56
2023/04/17 08:23:46;;;;;;;;;;;;;;;13.89;76.69;101088.02;102565;277;94212;-57
2023/04/17 08:26:22;;;;;;;;;;;;;;;14.01;76.74;101088.45;102608;277;96822;-57
2023/04/17 08:29:03;;;;;;;;;;;;;;;13.98;76.45;101093.54;102551;277;121004;-57
2023/04/17 08:31:38;;;;;;;;;;;;;;;13.91;75.97;101094.70;102593;278;105573;-55
2023/04/17 08:34:16;;;;;;;;;;;;;;;13.80;75.95;101097.49;102550;277;113376;-57
2023/04/17 08:36:51;;;;;;;;;;;;;;;13.78;76.11;101097.05;102559;277;93268;-59
2023/04/17 08:39:27;;;;;;;;;;;;;;;13.71;75.99;101102.83;102576;278;97422;-59
2023/04/17 08:42:09;;;;;;;;;;;;;;;13.60;76.13;101100.59;102602;277;120572;-59
2023/04/17 08:44:44;;;;;;;;;;;;;;;13.61;76.15;101100.97;102532;277;107965;-59
2023/04/17 08:47:19;;;;;;;;;;;;;;;13.61;76.10;101102.10;102546;277;113241;-59
2023/04/17 08:49:55;;;;;;;;;;;;;;;13.62;76.09;101100.72;102566;277;94599;-60
2023/04/17 08:52:34;;;;;;;;;;;;;;;13.64;76.13;101101.58;102566;277;97454;-61
2023/04/17 08:55:08;;;;;;;;;;;;;;;13.80;76.01;101101.17;102548;277;119594;-60
2023/04/17 08:57:54;;;;;;;;;;;;;;;14.01;76.15;101100.29;102550;277;105675;-59
2023/04/17 09:00:33;;;;;;;;;;;;;;;14.11;75.90;101105.90;102546;277;114311;-57
2023/04/17 09:03:14;;;;;;;;;;;;;;;13.92;75.08;101107.77;102546;278;93648;-56
2023/04/17 09:05:57;;;;;;;;;;;;;;;13.97;75.54;101106.69;102584;277;96952;-57
2023/04/17 09:08:36;;;;;;;;;;;;;;;14.28;75.65;101102.23;102535;277;120196;-56
2023/04/17 09:11:19;;;;;;;;;;;;;;;14.71;75.79;101101.90;102602;277;105839;-60
2023/04/17 09:13:57;;;;;;;;;;;;;;;14.93;75.02;101105.42;102545;277;114919;-59
2023/04/17 09:16:38;;;;;;;;;;;;;;;14.97;74.78;101106.95;102544;277;95211;-59
2023/04/17 09:19:14;;;;;;;;;;;;;;;15.24;74.45;101109.78;102600;277;97662;-59
2023/04/17 09:21:53;;;;;;;;;;;;;;;15.49;74.03;101109.19;102542;277;120014;-57
2023/04/17 09:24:48;;;;;;;;;;;;;;;15.85;73.67;101107.29;102532;277;105713;-57
2023/04/17 09:27:32;;;;;;;;;;;;;;;16.19;73.17;101105.55;102145;277;614042;-56
2023/04/17 09:30:08;;;;;;;;;;;;;;;15.90;72.46;101106.50;102536;278;94624;-56
2023/04/17 09:32:43;;;;;;;;;;;;;;;15.33;71.58;101112.00;102599;277;98386;-56
2023/04/17 09:35:26;;;;;;;;;;;;;;;15.13;72.17;101118.09;102586;278;121142;-56
2023/04/17 09:38:01;;;;;;;;;;;;;;;14.89;72.00;101116.16;102585;278;105987;-61
2023/04/17 09:40:44;;;;;;;;;;;;;;;14.77;72.01;101115.88;102633;278;114042;-57
2023/04/17 09:43:22;;;;;;;;;;;;;;;14.67;72.46;101117.06;102611;278;94536;-56
2023/04/17 09:45:55;;;;;;;;;;;;;;;14.75;72.54;101122.02;102627;278;98244;-57
2023/04/17 09:48:29;;;;;;;;;;;;;;;14.77;72.55;101119.39;102597;278;120075;-57
2023/04/17 09:51:08;;;;;;;;;;;;;;;14.69;72.17;101122.48;102650;278;104010;-60
2023/04/17 09:53:50;;;;;;;;;;;;;;;14.52;72.39;101123.93;102637;278;113625;-60
2023/04/17 09:56:23;;;;;;;;;;;;;;;14.76;72.57;101122.44;102649;278;96364;-56
2023/04/17 09:58:58;;;;;;;;;;;;;;;14.97;72.45;101122.10;102620;278;96112;-57
2023/04/17 10:01:36;;;;;;;;;;;;;;;15.03;71.74;101120.09;102651;278;119842;-56
2023/04/17 10:04:19;;;;;;;;;;;;;;;15.25;71.95;101116.48;102653;278;105523;-59
2023/04/17 10:06:58;;;;;;;;;;;;;;;15.49;71.85;101114.98;102599;278;114154;-56
2023/04/17 10:09:34;;;;;;;;;;;;;;;15.80;71.90;101112.95;102601;278;93701;-57
2023/04/17 10:12:12;;;;;;;;;;;;;;;16.04;71.67;101113.29;102612;278;97582;-60
2023/04/17 10:14:50;;;;;;;;;;;;;;;16.21;71.63;101114.98;102609;278;120699;-60
2023/04/17 10:17:27;;;;;;;;;;;;;;;16.34;70.88;101116.46;102647;278;105873;-57
2023/04/17 10:20:16;;;;;;;;;;;;;;;16.29;70.23;101121.29;102622;278;114552;-55
2023/04/17 10:22:54;;;;;;;;;;;;;;;15.97;68.99;101124.30;102659;278;92583;-57
2023/04/17 10:25:30;;;;;;;;;;;;;;;15.57;69.55;101125.87;102674;278;96358;-57
2023/04/17 10:28:05;;;;;;;;;;;;;;;15.39;69.65;101130.26;102654;278;120791;-56
2023/04/17 10:31:00;;;;;;;;;;;;;;;15.12;69.79;101129.48;102668;278;105293;-57
2023/04/17 10:33:48;;;;;;;;;;;;;;;15.11;69.94;101125.46;102452;278;113338;-56
2023/04/17 10:36:49;;;;;;;;;;;;;;;15.08;70.26;101123.69;102655;278;94758;-60
2023/04/17 10:39:24;;;;;;;;;;;;;;;15.17;70.17;101119.17;102625;278;95958;-61
2023/04/17 10:42:05;;;;;;;;;;;;;;;15.26;70.21;101114.85;102656;278;120311;-59
2023/04/17 10:44:40;;;;;;;;;;;;;;;15.40;69.82;101111.78;102633;278;105523;-59
2023/04/17 10:47:19;;;;;;;;;;;;;;;15.68;69.99;101108.30;102664;278;113616;-56
2023/04/17 10:49:54;;;;;;;;;;;;;;;15.96;69.56;101110.25;102618;278;94926;-57
2023/04/17 10:52:43;;;;;;;;;;;;;;;15.88;68.49;101112.52;102651;278;98343;-56
2023/04/17 10:55:21;;;;;;;;;;;;;;;15.75;68.84;101108.86;102628;278;120255;-57
2023/04/17 10:58:03;;;;;;;;;;;;;;;15.86;68.81;101103.69;102604;278;104610;-60
2023/04/17 11:00:51;;;;;;;;;;;;;;;16.01;68.39;101108.97;102638;277;112571;-56
2023/04/17 11:03:31;;;;;;;;;;;;;;;16.02;68.02;101103.77;102591;278;93145;-56
2023/04/17 11:06:09;;;;;;;;;;;;;;;16.02;67.73;101106.29;102618;278;98125;-57
2023/04/17 11:08:44;;;;;;;;;;;;;;;15.89;67.04;101107.52;102593;278;120518;-56
2023/04/17 11:11:21;;;;;;;;;;;;;;;15.73;67.58;101104.92;102632;278;105092;-60
2023/04/17 11:13:58;;;;;;;;;;;;;;;15.95;67.58;101104.89;102543;278;114463;-60
2023/04/17 11:16:32;;;;;;;;;;;;;;;16.07;67.71;101103.93;102605;278;94513;-60
2023/04/17 11:19:05;;;;;;;;;;;;;;;16.13;67.30;101102.44;102635;278;98183;-60
2023/04/17 11:21:43;;;;;;;;;;;;;;;16.06;66.64;101104.11;102633;277;121145;-57
2023/04/17 11:24:24;;;;;;;;;;;;;;;15.99;66.91;101103.18;102525;278;105635;-57
2023/04/17 11:27:04;;;;;;;;;;;;;;;15.95;67.17;101101.67;102612;277;114986;-61
2023/04/17 11:29:41;;;;;;;;;;;;;;;16.05;66.93;101100.58;102576;277;95293;-61
2023/04/17 11:32:20;;;;;;;;;;;;;;;16.05;66.46;101101.79;102592;278;97543;-57
2023/04/17 11:34:57;;;;;;;;;;;;;;;15.98;66.34;101100.83;102575;278;120004;-56
2023/04/17 11:37:34;;;;;;;;;;;;;;;15.87;66.40;101101.23;102588;278;105872;-60
2023/04/17 11:40:09;;;;;;;;;;;;;;;15.98;66.53;101103.27;102536;278;114271;-60
2023/04/17 11:42:47;;;;;;;;;;;;;;;16.14;66.48;101101.35;102582;278;95102;-60
2023/04/17 11:45:24;;;;;;;;;;;;;;;16.23;66.28;101102.82;102537;279;97453;-60
2023/04/17 11:47:59;;;;;;;;;;;;;;;16.31;66.15;101098.79;102591;278;120580;-56
2023/04/17 11:50:35;;;;;;;;;;;;;;;16.54;66.30;101091.08;102552;277;106233;-60
2023/04/17 11:53:15;;;;;;;;;;;;;;;16.64;65.85;101090.58;102593;278;115088;-60
2023/04/17 11:55:49;;;;;;;;;;;;;;;16.74;65.51;101095.17;102364;280;95406;-60
2023/04/17 11:58:24;;;;;;;;;;;;;;;16.86;65.34;101091.44;102570;277;96506;-61
2023/04/17 12:01:08;;;;;;;;;;;;;;;17.03;64.25;101090.33;102530;278;119994;-57
2023/04/17 12:03:46;;;;;;;;;;;;;;;16.78;63.84;101088.13;102598;277;105738;-56
2023/04/17 12:06:35;;;;;;;;;;;;;;;16.50;63.49;101086.81;102611;278;113451;-59
2023/04/17 12:09:18;;;;;;;;;;;;;;;16.23;63.33;101090.87;102609;278;94276;-59
2023/04/17 12:11:52;;;;;;;;;;;;;;;16.24;64.23;101095.69;102620;277;97790;-60
2023/04/17 12:14:30;;;;;;;;;;;;;;;16.15;64.10;101097.87;102552;277;121323;-59
2023/04/17 12:17:11;;;;;;;;;;;;;;;15.98;64.03;101097.21;102566;277;105833;-56
2023/04/17 12:19:51;;;;;;;;;;;;;;;16.00;64.09;101102.23;102505;277;113285;-57
2023/04/17 12:22:29;;;;;;;;;;;;;;;15.98;63.62;101105.05;102543;277;94643;-56
2023/04/17 12:25:04;;;;;;;;;;;;;;;15.81;63.09;101102.39;102598;277;96699;-56
2023/04/17 12:27:39;;;;;;;;;;;;;;;15.65;63.37;101107.27;102570;278;120748;-57
2023/04/17 12:30:13;;;;;;;;;;;;;;;15.66;63.89;101104.15;102586;277;104498;-58
2023/04/17 12:32:48;;;;;;;;;;;;;;;15.75;64.10;101100.73;102575;277;113921;-57
2023/04/17 12:35:22;;;;;;;;;;;;;;;15.81;64.11;101102.64;102581;277;94642;-57
2023/04/17 12:38:04;;;;;;;;;;;;;;;15.71;63.91;101103.79;102573;277;97398;-57
2023/04/17 12:40:42;;;;;;;;;;;;;;;15.76;64.08;101103.21;102543;278;121619;-61
2023/04/17 12:43:21;;;;;;;;;;;;;;;15.87;64.30;101109.39;102542;277;106043;-60
2023/04/17 12:45:59;;;;;;;;;;;;;;;15.87;64.17;101108.10;102584;277;113913;-59
2023/04/17 12:48:35;;;;;;;;;;;;;;;15.89;63.92;101107.42;102543;277;93302;-60
2023/04/17 12:51:12;;;;;;;;;;;;;;;15.88;63.81;101109.48;102547;277;97879;-59
2023/04/17 12:53:51;;;;;;;;;;;;;;;15.82;63.66;101111.11;102523;278;120580;-59
2023/04/17 12:56:24;;;;;;;;;;;;;;;15.77;63.83;101104.94;102584;277;105032;-56
2023/04/17 12:59:00;;;;;;;;;;;;;;;15.63;63.64;101110.17;102539;278;114199;-56
2023/04/17 13:01:35;;;;;;;;;;;;;;;15.45;63.33;101113.69;102589;277;94649;-56
2023/04/17 13:04:11;;;;;;;;;;;;;;;15.33;63.07;101115.10;102551;277;97209;-55
2023/04/17 13:06:49;;;;;;;;;;;;;;;15.14;63.56;101114.00;102601;277;120226;-59
2023/04/17 13:09:29;;;;;;;;;;;;;;;15.03;63.76;101113.64;102527;278;104455;-58
2023/04/17 13:12:05;;;;;;;;;;;;;;;15.04;64.02;101110.48;102559;277;113716;-59
2023/04/17 13:14:38;;;;;;;;;;;;;;;14.98;63.74;101112.08;102558;277;93234;-59
2023/04/17 13:17:14;;;;;;;;;;;;;;;14.93;63.91;101109.77;102564;277;97464;-56
2023/04/17 13:19:53;;;;;;;;;;;;;;;14.91;63.98;101112.70;102566;277;120368;-56
2023/04/17 13:22:30;;;;;;;;;;;;;;;14.88;63.90;101116.74;102582;277;105193;-59
2023/04/17 13:25:07;;;;;;;;;;;;;;;14.89;63.95;101107.58;102535;277;114824;-59
2023/04/17 13:27:41;;;;;;;;;;;;;;;14.90;63.78;101111.14;102581;277;95354;-59